createdAt,value
2018-04-02T00:00:03.554Z,90.58
2018-04-02T00:05:03.492Z,76.51
2018-04-02T00:10:03.126Z,7.48
2018-04-02T00:15:02.804Z,0
2018-04-02T00:20:03.440Z,48.68
2018-04-02T00:25:03.107Z,0
2018-04-02T00:30:03.725Z,10.98
2018-04-02T00:35:03.364Z,0
2018-04-02T00:40:03.013Z,0
2018-04-02T00:45:03.631Z,29.83
2018-04-02T00:50:03.302Z,42.52
2018-04-02T00:55:02.865Z,57.39
2018-04-02T01:00:03.454Z,0
2018-04-02T01:05:03.012Z,92.8
2018-04-02T01:10:03.627Z,0
2018-04-02T01:15:03.255Z,0
2018-04-02T01:20:02.914Z,0
2018-04-02T01:25:03.451Z,22.63
2018-04-02T01:30:03.014Z,23.77
2018-04-02T01:35:03.914Z,14.96
2018-04-02T01:40:03.559Z,54.55
2018-04-02T01:45:03.179Z,50.95
2018-04-02T01:50:04.010Z,0
2018-04-02T01:55:03.609Z,27.65
2018-04-02T02:00:03.177Z,0
2018-04-02T02:05:03.795Z,89.11
2018-04-02T02:10:03.489Z,0
2018-04-02T02:15:03.129Z,92.99
2018-04-02T02:20:03.711Z,86.65
2018-04-02T02:25:03.322Z,70.64
2018-04-02T02:30:02.897Z,71.5
2018-04-02T02:35:03.704Z,34.75
2018-04-02T02:40:03.393Z,42.23
2018-04-02T02:45:03.028Z,0
2018-04-02T02:50:03.697Z,33.23
2018-04-02T02:55:03.325Z,0
2018-04-02T03:00:02.961Z,80.11
2018-04-02T03:05:03.555Z,0
2018-04-02T03:10:03.458Z,0
2018-04-02T03:15:03.084Z,0
2018-04-02T03:20:03.710Z,4.45
2018-04-02T03:25:03.337Z,68.08
2018-04-02T03:30:02.978Z,91.48
2018-04-02T03:35:03.612Z,0
2018-04-02T03:40:03.322Z,72.73
2018-04-02T03:45:02.907Z,67.99
2018-04-02T03:50:03.494Z,34.56
2018-04-02T03:55:03.122Z,89.96
2018-04-02T04:00:03.777Z,0
2018-04-02T04:05:03.414Z,53.69
2018-04-02T04:10:03.014Z,26.04
2018-04-02T04:15:03.605Z,0
2018-04-02T04:20:03.236Z,33.04
2018-04-02T04:25:02.819Z,19.32
2018-04-02T04:30:03.406Z,0
2018-04-02T04:35:03.053Z,81.82
2018-04-02T04:40:03.945Z,1.04
2018-04-02T04:45:03.522Z,0
2018-04-02T04:50:03.096Z,3.31
2018-04-02T04:55:03.786Z,31.52
2018-04-02T05:00:03.372Z,12.12
2018-04-02T05:05:02.998Z,0
2018-04-02T05:10:03.729Z,0
2018-04-02T05:15:03.288Z,5.77
2018-04-02T05:20:02.913Z,34.55
2018-04-02T05:25:03.558Z,36.82
2018-04-02T05:30:03.132Z,50.73
2018-04-02T05:35:03.686Z,30.02
2018-04-02T05:40:03.283Z,29.54
2018-04-02T05:45:02.905Z,0
2018-04-02T05:50:03.459Z,66.86
2018-04-02T05:55:02.992Z,0
2018-04-02T06:00:03.607Z,73.49
2018-04-02T06:05:03.197Z,34.47
2018-04-02T06:10:02.898Z,60.51
2018-04-02T06:15:03.528Z,58.52
2018-04-02T06:20:03.157Z,54.83
2018-04-02T06:25:03.709Z,23.02
2018-04-02T06:30:03.307Z,0
2018-04-02T06:35:02.928Z,19.61
2018-04-02T06:40:03.589Z,13.45
2018-04-02T06:45:03.209Z,19.8
2018-04-02T06:50:02.838Z,0
2018-04-02T06:55:03.444Z,25.58
2018-04-02T07:00:03.392Z,67.08
2018-04-02T07:05:02.937Z,0
2018-04-02T07:10:03.534Z,35.17
2018-04-02T07:15:03.082Z,48.82
2018-04-02T07:20:03.708Z,10.8
2018-04-02T07:25:03.277Z,0
2018-04-02T07:30:02.850Z,53.46
2018-04-02T07:35:03.549Z,49.29
2018-04-02T07:40:03.146Z,74.41
2018-04-02T07:45:03.746Z,56.3
2018-04-02T07:50:03.412Z,22.95
2018-04-02T07:55:02.994Z,0
2018-04-02T08:00:03.569Z,3.22
2018-04-02T08:05:03.179Z,11.1
2018-04-02T08:10:02.927Z,0
2018-04-02T08:15:02.976Z,0
2018-04-02T08:20:03.572Z,0
2018-04-02T08:25:03.200Z,0
2018-04-02T08:30:02.834Z,0
2018-04-02T08:35:03.458Z,0
2018-04-02T08:40:03.109Z,0
2018-04-02T08:45:03.684Z,0
2018-04-02T08:50:03.329Z,0
2018-04-02T08:55:02.867Z,0.09
2018-04-02T09:00:03.367Z,0.28
2018-04-02T09:05:02.984Z,0
2018-04-02T09:10:03.640Z,11.5
2018-04-02T09:15:03.194Z,13.31
2018-04-02T09:20:02.829Z,11.98
2018-04-02T09:25:03.440Z,14.83
2018-04-02T09:30:03.002Z,12.18
2018-04-02T09:35:03.557Z,11.41
2018-04-02T09:40:03.144Z,23.32
2018-04-02T09:45:03.702Z,30.07
2018-04-02T09:50:03.314Z,42.76
2018-04-02T09:55:02.890Z,40.75
2018-04-02T10:00:03.430Z,58.02
2018-04-02T10:05:04.062Z,72.97
2018-04-02T10:10:04.189Z,81.36
2018-04-02T10:15:02.807Z,71.51
2018-04-02T10:20:03.573Z,62.56
2018-04-02T10:25:03.239Z,64.08
2018-04-02T10:30:03.277Z,69.42
2018-04-02T10:35:02.892Z,65.42
2018-04-02T10:40:03.580Z,69.07
2018-04-02T10:45:03.216Z,74.12
2018-04-02T10:50:02.905Z,72.12
2018-04-02T10:55:03.658Z,64.87
2018-04-02T11:00:03.264Z,69.74
2018-04-02T11:05:02.941Z,85.74
2018-04-02T11:10:03.594Z,72.6
2018-04-02T11:15:03.255Z,75.07
2018-04-02T11:20:02.914Z,80.69
2018-04-02T11:25:03.584Z,92.22
2018-04-02T11:30:03.209Z,98.22
2018-04-02T11:35:02.781Z,94.46
2018-04-02T11:40:03.437Z,99.99
2018-04-02T11:45:03.014Z,99.99
2018-04-02T11:50:03.649Z,99.99
2018-04-02T11:55:03.315Z,99.99
2018-04-02T12:00:02.887Z,99.99
2018-04-02T12:05:03.534Z,99.99
2018-04-02T12:10:03.201Z,99.99
2018-04-02T12:15:02.852Z,99.99
2018-04-02T12:20:03.583Z,99.99
2018-04-02T12:25:03.210Z,99.99
2018-04-02T12:30:02.815Z,99.99
2018-04-02T12:35:03.465Z,99.99
2018-04-02T12:40:03.227Z,99.99
2018-04-02T12:45:04.045Z,99.99
2018-04-02T12:50:02.941Z,99.99
2018-04-02T12:55:03.581Z,99.99
2018-04-02T13:00:03.197Z,99.99
2018-04-02T13:05:02.853Z,99.99
2018-04-02T13:10:03.586Z,99.99
2018-04-02T13:15:03.251Z,99.99
2018-04-02T13:20:02.861Z,99.99
2018-04-02T13:25:03.480Z,99.99
2018-04-02T13:30:03.120Z,99.99
2018-04-02T13:35:03.776Z,99.99
2018-04-02T13:40:03.458Z,99.99
2018-04-02T13:45:03.083Z,99.99
2018-04-02T13:50:03.830Z,99.99
2018-04-02T13:55:03.437Z,99.99
2018-04-02T14:00:03.123Z,99.99
2018-04-02T14:05:03.704Z,99.99
2018-04-02T14:10:03.427Z,99.99
2018-04-02T14:15:02.950Z,99.99
2018-04-02T14:20:02.824Z,99.99
2018-04-02T14:25:03.430Z,99.99
2018-04-02T14:30:03.078Z,99.99
2018-04-02T14:35:03.723Z,99.99
2018-04-02T14:40:03.372Z,99.99
2018-04-02T14:45:02.959Z,99.99
2018-04-02T14:50:03.600Z,99.99
2018-04-02T14:55:03.244Z,99.99
2018-04-02T15:00:02.988Z,99.99
2018-04-02T15:05:03.622Z,99.99
2018-04-02T15:10:03.335Z,99.99
2018-04-02T15:15:02.847Z,99.99
2018-04-02T15:20:03.499Z,99.99
2018-04-02T15:25:03.129Z,99.99
2018-04-02T15:30:03.736Z,99.99
2018-04-02T15:35:03.349Z,99.99
2018-04-02T15:40:02.977Z,99.99
2018-04-02T15:45:03.569Z,99.99
2018-04-02T15:50:03.446Z,99.99
2018-04-02T15:55:03.054Z,99.99
2018-04-02T16:00:03.646Z,99.99
2018-04-02T16:05:03.236Z,99.99
2018-04-02T16:10:02.872Z,99.99
2018-04-02T16:15:03.492Z,99.99
2018-04-02T16:20:03.067Z,99.99
2018-04-02T16:25:03.637Z,99.99
2018-04-02T16:30:03.217Z,99.99
2018-04-02T16:35:03.780Z,99.99
2018-04-02T16:40:03.442Z,99.99
2018-04-02T16:45:03.019Z,99.99
2018-04-02T16:50:03.672Z,99.99
2018-04-02T16:55:03.341Z,99.99
2018-04-02T17:00:02.948Z,99.99
2018-04-02T17:05:03.550Z,99.99
2018-04-02T17:10:03.262Z,99.99
2018-04-02T17:15:02.863Z,99.99
2018-04-02T17:20:03.822Z,99.99
2018-04-02T17:25:03.729Z,99.99
2018-04-02T17:30:03.315Z,99.99
2018-04-02T17:35:02.927Z,99.99
2018-04-02T17:45:03.163Z,99.99
2018-04-02T17:50:03.731Z,99.99
2018-04-02T17:55:03.611Z,99.99
2018-04-02T18:00:03.280Z,99.99
2018-04-02T18:05:02.844Z,99.99
2018-04-02T18:10:03.473Z,99.99
2018-04-02T18:15:03.094Z,99.99
2018-04-02T18:20:03.679Z,99.99
2018-04-02T18:25:03.283Z,99.99
2018-04-02T18:30:02.912Z,99.99
2018-04-02T18:35:03.519Z,99.99
2018-04-02T18:40:03.188Z,99.99
2018-04-02T18:45:03.139Z,99.99
2018-04-02T18:50:02.805Z,99.99
2018-04-02T18:55:03.503Z,99.99
2018-04-02T19:00:03.129Z,87.79
2018-04-02T19:05:03.759Z,81.49
2018-04-02T19:10:03.399Z,68.21
2018-04-02T19:15:02.978Z,48.02
2018-04-02T19:20:03.669Z,34.87
2018-04-02T19:25:03.281Z,27.61
2018-04-02T19:30:03.276Z,21.04
2018-04-02T19:35:02.768Z,16.19
2018-04-02T19:40:03.485Z,7.33
2018-04-02T19:45:03.090Z,5.52
2018-04-02T19:50:03.779Z,0
2018-04-02T19:55:03.428Z,1.04
2018-04-02T20:00:03.179Z,0.57
2018-04-02T20:05:02.818Z,0
2018-04-02T20:10:03.488Z,0.28
2018-04-02T20:15:03.096Z,0
2018-04-02T20:20:03.740Z,0
2018-04-02T20:25:03.358Z,0
2018-04-02T20:30:03.551Z,0
2018-04-02T20:35:03.446Z,0
2018-04-02T20:40:03.112Z,0
2018-04-02T20:45:03.669Z,99.99
2018-04-02T20:50:03.300Z,99.99
2018-04-02T20:55:02.977Z,0
2018-04-02T21:00:03.590Z,38.07
2018-04-02T21:05:03.156Z,0
2018-04-02T21:10:03.797Z,69.29
2018-04-02T21:15:03.358Z,0
2018-04-02T21:20:03.235Z,81.37
2018-04-02T21:25:02.826Z,99.99
2018-04-02T21:30:03.500Z,0
2018-04-02T21:35:03.115Z,0
2018-04-02T21:40:03.788Z,0
2018-04-02T21:45:03.326Z,0
2018-04-02T21:50:02.990Z,0
2018-04-02T21:55:03.550Z,0
2018-04-02T22:00:03.135Z,0.28
2018-04-02T22:05:02.822Z,0.47
2018-04-02T22:10:03.448Z,0.85
2018-04-02T22:15:03.016Z,0.76
2018-04-02T22:20:03.692Z,1.52
2018-04-02T22:25:03.402Z,1.33
2018-04-02T22:30:03.016Z,2.66
2018-04-02T22:35:03.656Z,3.33
2018-04-02T22:40:03.327Z,3.9
2018-04-02T22:45:02.953Z,4.09
2018-04-02T22:50:03.556Z,4.85
2018-04-02T22:55:03.205Z,5.14
2018-04-02T23:00:05.816Z,6.67
2018-04-02T23:05:03.493Z,7.42
2018-04-02T23:10:03.351Z,8.76
2018-04-02T23:15:03.001Z,8.95
2018-04-02T23:20:03.722Z,8.47
2018-04-02T23:25:03.311Z,7.62
2018-04-02T23:30:02.894Z,6.95
2018-04-02T23:35:03.522Z,5.99
2018-04-02T23:40:03.164Z,5.14
2018-04-02T23:45:03.759Z,3.05
2018-04-02T23:50:03.457Z,3.14
2018-04-02T23:55:03.052Z,3.23
